createdAt,value
2022-10-15T00:00:42.035Z,37.92
2022-10-15T00:03:15.392Z,38.67
2022-10-15T00:05:47.961Z,36.72
2022-10-15T00:08:20.527Z,39.47
2022-10-15T00:10:52.964Z,33.15
2022-10-15T00:13:25.485Z,40.08
2022-10-15T00:15:57.938Z,34.20
2022-10-15T00:18:30.780Z,40.38
2022-10-15T00:21:07.750Z,37.03
2022-10-15T00:23:40.815Z,36.20
2022-10-15T00:26:17.709Z,38.50
2022-10-15T00:28:52.265Z,39.47
2022-10-15T00:31:30.230Z,34.53
2022-10-15T00:34:03.043Z,39.15
2022-10-15T00:36:37.190Z,35.70
2022-10-15T00:39:10.942Z,38.22
2022-10-15T00:41:45.562Z,34.80
2022-10-15T00:44:25.982Z,33.63
2022-10-15T00:47:12.125Z,35.22
2022-10-15T00:50:05.181Z,35.03
2022-10-15T00:53:00.533Z,32.90
2022-10-15T00:55:34.998Z,32.50
2022-10-15T01:00:51.634Z,32.08
2022-10-15T01:03:24.571Z,31.70
2022-10-15T01:05:57.280Z,29.95
2022-10-15T01:08:30.036Z,26.95
2022-10-15T01:11:27.596Z,32.65
2022-10-15T01:14:06.047Z,31.40
2022-10-15T01:16:48.357Z,32.28
2022-10-15T01:19:51.123Z,34.40
2022-10-15T01:22:39.717Z,32.15
2022-10-15T01:25:14.580Z,32.50
2022-10-15T01:27:55.489Z,33.25
2022-10-15T01:30:38.736Z,31.65
2022-10-15T01:33:34.872Z,32.08
2022-10-15T01:36:23.189Z,29.58
2022-10-15T01:39:02.392Z,28.60
2022-10-15T01:41:55.927Z,30.85
2022-10-15T01:44:37.495Z,32.33
2022-10-15T01:47:29.919Z,37.90
2022-10-15T01:50:05.769Z,34.38
2022-10-15T01:52:41.201Z,33.15
2022-10-15T01:57:49.280Z,32.83
2022-10-15T02:00:21.984Z,29.10
2022-10-15T02:03:01.957Z,29.77
2022-10-15T02:05:40.807Z,33.75
2022-10-15T02:08:32.141Z,31.73
2022-10-15T02:11:12.690Z,35.17
2022-10-15T02:14:02.902Z,28.90
2022-10-15T02:16:56.944Z,37.20
2022-10-15T02:19:51.891Z,32.92
2022-10-15T02:22:26.923Z,30.67
2022-10-15T02:25:05.853Z,32.92
2022-10-15T02:27:39.594Z,26.05
2022-10-15T02:30:13.521Z,27.08
2022-10-15T02:35:28.482Z,27.73
2022-10-15T02:38:05.584Z,24.73
2022-10-15T02:40:41.727Z,26.40
2022-10-15T02:43:20.123Z,22.52
2022-10-15T02:45:52.562Z,26.13
2022-10-15T02:48:27.215Z,19.33
2022-10-15T02:50:59.716Z,22.30
2022-10-15T02:53:32.542Z,18.77
2022-10-15T02:56:05.721Z,21.63
2022-10-15T02:58:40.196Z,24.60
2022-10-15T03:01:14.533Z,20.40
2022-10-15T03:03:47.453Z,22.45
2022-10-15T03:06:20.165Z,24.85
2022-10-15T03:08:53.987Z,24.13
2022-10-15T03:11:28.402Z,18.13
2022-10-15T03:14:01.062Z,21.10
2022-10-15T03:16:35.866Z,19.40
2022-10-15T03:19:08.401Z,20.98
2022-10-15T03:21:41.893Z,23.40
2022-10-15T03:24:18.366Z,23.05
2022-10-15T03:26:50.938Z,23.58
2022-10-15T03:29:23.409Z,19.55
2022-10-15T03:32:03.703Z,22.42
2022-10-15T03:34:37.101Z,24.50
2022-10-15T03:37:10.289Z,19.30
2022-10-15T03:39:42.886Z,23.48
2022-10-15T03:42:15.930Z,24.08
2022-10-15T03:44:51.800Z,25.75
2022-10-15T03:47:26.280Z,23.77
2022-10-15T03:49:58.801Z,22.95
2022-10-15T03:52:31.446Z,21.98
2022-10-15T03:55:06.522Z,24.95
2022-10-15T03:57:39.735Z,24.35
2022-10-15T04:00:14.465Z,23.58
2022-10-15T04:02:47.114Z,21.90
2022-10-15T04:05:31.292Z,23.92
2022-10-15T04:08:09.970Z,26.70
2022-10-15T04:10:46.727Z,23.00
2022-10-15T04:13:19.628Z,22.20
2022-10-15T04:15:52.358Z,21.38
2022-10-15T04:18:24.941Z,22.35
2022-10-15T04:21:02.274Z,24.77
2022-10-15T04:23:34.911Z,26.25
2022-10-15T04:26:23.375Z,21.25
2022-10-15T04:28:56.186Z,23.10
2022-10-15T04:31:29.431Z,23.48
2022-10-15T04:34:04.095Z,20.38
2022-10-15T04:36:37.044Z,20.42
2022-10-15T04:39:21.626Z,18.65
2022-10-15T04:41:54.202Z,16.80
2022-10-15T04:44:30.471Z,16.98
2022-10-15T04:47:05.207Z,19.75
2022-10-15T04:49:42.817Z,20.50
2022-10-15T04:52:24.468Z,15.85
2022-10-15T04:55:03.521Z,17.45
2022-10-15T04:57:36.230Z,16.00
2022-10-15T05:00:09.892Z,16.38
2022-10-15T05:03:02.473Z,16.98
2022-10-15T05:05:47.192Z,16.85
2022-10-15T05:08:20.063Z,18.80
2022-10-15T05:11:13.433Z,19.27
2022-10-15T05:13:46.383Z,14.65
2022-10-15T05:16:22.939Z,16.48
2022-10-15T05:18:59.583Z,16.75
2022-10-15T05:21:32.946Z,17.88
2022-10-15T05:24:10.920Z,16.65
2022-10-15T05:26:58.357Z,17.20
2022-10-15T05:32:06.953Z,13.80
2022-10-15T05:34:39.697Z,14.80
2022-10-15T05:37:18.189Z,17.42
2022-10-15T05:39:50.826Z,18.45
2022-10-15T05:42:23.356Z,17.15
2022-10-15T05:45:02.223Z,14.13
2022-10-15T05:47:34.816Z,15.48
2022-10-15T05:50:24.100Z,15.07
2022-10-15T05:53:00.886Z,13.30
2022-10-15T05:55:40.742Z,13.00
2022-10-15T05:58:13.344Z,14.57
2022-10-15T06:00:46.144Z,17.98
2022-10-15T06:03:18.609Z,14.05
2022-10-15T06:05:51.474Z,13.75
2022-10-15T06:08:24.237Z,16.13
2022-10-15T06:11:05.273Z,15.85
2022-10-15T06:13:42.919Z,13.95
2022-10-15T06:16:20.873Z,11.55
2022-10-15T06:18:56.768Z,15.98
2022-10-15T06:21:29.502Z,12.13
2022-10-15T06:24:04.121Z,14.30
2022-10-15T06:26:39.636Z,15.35
2022-10-15T06:29:12.481Z,15.32
2022-10-15T06:31:45.167Z,13.30
2022-10-15T06:34:17.798Z,13.38
2022-10-15T06:36:50.433Z,15.77
2022-10-15T06:39:22.939Z,15.80
2022-10-15T06:41:55.502Z,12.93
2022-10-15T06:44:28.825Z,15.73
2022-10-15T06:47:02.398Z,14.15
2022-10-15T06:49:35.052Z,12.63
2022-10-15T06:52:07.665Z,14.20
2022-10-15T06:54:40.229Z,11.63
2022-10-15T06:57:13.975Z,13.55
2022-10-15T06:59:46.565Z,12.77
2022-10-15T07:02:19.663Z,9.60
2022-10-15T07:04:52.274Z,11.15
2022-10-15T07:07:26.257Z,11.38
2022-10-15T07:09:58.988Z,9.27
2022-10-15T07:12:31.687Z,12.52
2022-10-15T07:15:07.665Z,10.18
2022-10-15T07:17:40.096Z,15.35
2022-10-15T07:20:12.736Z,11.75
2022-10-15T07:22:45.307Z,10.95
2022-10-15T07:25:18.083Z,9.05
2022-10-15T07:27:51.187Z,12.88
2022-10-15T07:30:28.039Z,10.38
2022-10-15T07:33:00.791Z,10.38
2022-10-15T07:35:34.574Z,10.75
2022-10-15T07:38:07.386Z,9.90
2022-10-15T07:40:39.901Z,8.63
2022-10-15T07:43:12.520Z,12.48
2022-10-15T07:45:50.052Z,8.48
2022-10-15T07:48:23.309Z,11.20
2022-10-15T07:51:01.649Z,9.07
2022-10-15T07:53:34.725Z,9.98
2022-10-15T07:56:10.699Z,8.25
2022-10-15T07:58:43.817Z,9.85
2022-10-15T08:01:16.386Z,8.90
2022-10-15T08:03:49.130Z,7.78
2022-10-15T08:06:21.839Z,8.65
2022-10-15T08:08:54.429Z,11.05
2022-10-15T08:11:27.102Z,10.90
2022-10-15T08:13:59.764Z,8.07
2022-10-15T08:16:32.343Z,11.25
2022-10-15T08:19:06.172Z,21.25
2022-10-15T08:21:38.666Z,8.02
2022-10-15T08:24:11.446Z,7.45
2022-10-15T08:26:44.192Z,9.98
2022-10-15T08:29:17.228Z,9.25
2022-10-15T08:31:49.750Z,8.30
2022-10-15T08:34:27.387Z,9.63
2022-10-15T08:36:59.946Z,8.20
2022-10-15T08:39:32.535Z,10.45
2022-10-15T08:42:12.920Z,12.05
2022-10-15T08:44:52.032Z,9.18
2022-10-15T08:47:37.151Z,8.18
2022-10-15T08:50:18.174Z,8.43
2022-10-15T08:52:53.763Z,9.88
2022-10-15T08:55:36.099Z,9.70
2022-10-15T08:58:30.538Z,8.55
2022-10-15T09:01:14.372Z,7.63
2022-10-15T09:03:54.287Z,6.93
2022-10-15T09:06:34.171Z,8.30
2022-10-15T09:09:25.915Z,10.88
2022-10-15T09:12:29.293Z,8.52
2022-10-15T09:15:03.509Z,9.05
2022-10-15T09:17:37.717Z,10.18
2022-10-15T09:20:18.482Z,11.85
2022-10-15T09:22:59.957Z,12.50
2022-10-15T09:25:36.949Z,13.27
2022-10-15T09:28:17.794Z,14.15
2022-10-15T09:30:55.444Z,16.27
2022-10-15T09:33:39.244Z,29.75
2022-10-15T09:36:18.249Z,36.20
2022-10-15T09:39:01.956Z,30.42
2022-10-15T09:41:56.657Z,34.75
2022-10-15T09:44:38.013Z,30.58
2022-10-15T09:47:21.120Z,37.80
2022-10-15T09:49:53.797Z,30.08
2022-10-15T09:52:46.569Z,30.13
2022-10-15T09:55:43.675Z,34.10
2022-10-15T09:58:22.096Z,32.58
2022-10-15T10:00:57.251Z,44.15
2022-10-15T10:03:33.068Z,41.85
2022-10-15T10:06:11.956Z,37.72
2022-10-15T10:08:58.185Z,43.60
2022-10-15T10:11:48.844Z,40.28
2022-10-15T10:14:31.240Z,43.22
2022-10-15T10:17:15.667Z,40.05
2022-10-15T10:20:11.609Z,34.22
2022-10-15T10:22:53.810Z,37.85
2022-10-15T10:25:28.972Z,48.58
2022-10-15T10:28:13.051Z,42.25
2022-10-15T10:31:00.720Z,46.85
2022-10-15T10:33:36.355Z,44.60
2022-10-15T10:36:24.939Z,48.90
2022-10-15T10:39:14.959Z,49.28
2022-10-15T10:41:50.187Z,54.88
2022-10-15T10:44:39.726Z,51.65
2022-10-15T10:47:15.917Z,56.00
2022-10-15T10:49:53.734Z,59.85
2022-10-15T10:52:30.344Z,54.08
2022-10-15T10:55:25.330Z,53.03
2022-10-15T10:58:00.279Z,62.92
2022-10-15T11:00:44.976Z,59.20
2022-10-15T11:03:23.388Z,62.28
2022-10-15T11:08:50.565Z,64.13
2022-10-15T11:11:37.509Z,58.90
2022-10-15T11:14:26.177Z,53.50
2022-10-15T11:17:16.961Z,51.30
2022-10-15T11:20:24.898Z,52.92
2022-10-15T11:23:22.611Z,52.33
2022-10-15T11:26:15.690Z,45.45
2022-10-15T11:29:06.557Z,50.97
2022-10-15T11:32:01.663Z,45.05
2022-10-15T11:35:00.006Z,44.70
2022-10-15T11:37:57.133Z,37.78
2022-10-15T11:40:38.567Z,36.30
2022-10-15T11:43:43.959Z,36.50
2022-10-15T11:46:44.106Z,38.45
2022-10-15T11:49:30.189Z,36.70
2022-10-15T11:52:33.413Z,39.42
2022-10-15T11:55:21.560Z,34.97
2022-10-15T11:58:01.033Z,40.30
2022-10-15T12:00:43.508Z,33.28
2022-10-15T12:03:22.850Z,33.35
2022-10-15T12:06:01.481Z,29.05
2022-10-15T12:08:39.976Z,31.17
2022-10-15T12:13:51.936Z,31.33
2022-10-15T12:16:40.922Z,28.50
2022-10-15T12:19:19.411Z,30.25
2022-10-15T12:21:56.711Z,28.35
2022-10-15T12:24:47.640Z,31.67
2022-10-15T12:27:20.857Z,34.22
2022-10-15T12:30:14.317Z,30.67
2022-10-15T12:32:48.850Z,29.63
2022-10-15T12:35:28.596Z,27.08
2022-10-15T12:38:21.048Z,26.33
2022-10-15T12:41:12.175Z,29.15
2022-10-15T12:43:50.837Z,27.60
2022-10-15T12:46:39.088Z,42.60
2022-10-15T12:49:31.373Z,53.85
2022-10-15T12:52:39.327Z,53.05
2022-10-15T12:55:27.486Z,53.75
2022-10-15T12:58:06.515Z,50.67
2022-10-15T13:00:41.010Z,49.53
2022-10-15T13:03:17.019Z,47.67
2022-10-15T13:05:53.933Z,49.55
2022-10-15T13:08:47.207Z,44.92
2022-10-15T13:11:44.266Z,39.58
2022-10-15T13:14:33.355Z,44.67
2022-10-15T13:17:16.279Z,41.30
2022-10-15T13:20:08.224Z,38.33
2022-10-15T13:22:40.843Z,40.65
2022-10-15T13:25:18.291Z,46.25
2022-10-15T13:27:50.816Z,40.03
2022-10-15T13:30:24.177Z,42.30
2022-10-15T13:32:57.836Z,39.38
2022-10-15T13:35:35.057Z,45.47
2022-10-15T13:38:15.969Z,41.15
2022-10-15T13:40:51.985Z,45.10
2022-10-15T13:43:27.357Z,49.22
2022-10-15T13:46:02.049Z,43.85
2022-10-15T13:51:20.066Z,44.88
2022-10-15T13:53:52.693Z,49.97
2022-10-15T13:56:32.590Z,47.45
2022-10-15T13:59:05.408Z,47.47
2022-10-15T14:01:48.438Z,49.08
2022-10-15T14:04:24.290Z,49.55
2022-10-15T14:07:02.713Z,52.70
2022-10-15T14:09:38.932Z,49.03
2022-10-15T14:12:12.027Z,49.25
2022-10-15T14:14:47.139Z,44.00
2022-10-15T14:17:20.388Z,40.67
2022-10-15T14:20:14.720Z,54.17
2022-10-15T14:22:51.861Z,45.38
2022-10-15T14:25:26.849Z,44.80
2022-10-15T14:27:59.592Z,49.05
2022-10-15T14:30:36.931Z,43.70
2022-10-15T14:33:40.715Z,44.55
2022-10-15T14:36:24.774Z,40.47
2022-10-15T14:39:25.502Z,47.08
2022-10-15T14:42:04.116Z,40.67
2022-10-15T14:44:47.117Z,41.20
2022-10-15T14:47:24.693Z,41.97
2022-10-15T14:50:01.253Z,41.25
2022-10-15T14:52:36.564Z,42.30
2022-10-15T14:55:33.448Z,37.42
2022-10-15T14:58:14.606Z,37.83
2022-10-15T15:00:55.014Z,40.42
2022-10-15T15:03:39.417Z,43.20
2022-10-15T15:06:12.370Z,40.85
2022-10-15T15:08:45.638Z,42.03
2022-10-15T15:11:23.278Z,42.90
2022-10-15T15:13:55.894Z,38.10
2022-10-15T15:16:28.424Z,41.22
2022-10-15T15:19:00.887Z,41.20
2022-10-15T15:21:33.665Z,43.47
2022-10-15T15:24:06.751Z,43.80
2022-10-15T15:26:39.437Z,43.90
2022-10-15T15:29:14.982Z,42.65
2022-10-15T15:31:48.798Z,42.05
2022-10-15T15:34:24.098Z,45.60
2022-10-15T15:36:56.709Z,43.80
2022-10-15T15:39:29.371Z,45.75
2022-10-15T15:42:02.320Z,45.60
2022-10-15T15:44:34.839Z,48.25
2022-10-15T15:47:08.406Z,42.95
2022-10-15T15:49:41.644Z,43.60
2022-10-15T15:52:14.542Z,46.88
2022-10-15T15:54:47.410Z,44.60
2022-10-15T15:57:20.139Z,44.90
2022-10-15T15:59:52.690Z,41.90
2022-10-15T16:02:26.219Z,40.80
2022-10-15T16:04:58.973Z,36.45
2022-10-15T16:07:31.951Z,47.10
2022-10-15T16:10:06.670Z,44.60
2022-10-15T16:12:40.394Z,35.38
2022-10-15T16:15:14.806Z,33.35
2022-10-15T16:17:48.253Z,32.38
2022-10-15T16:20:22.012Z,27.25
2022-10-15T16:22:55.268Z,33.35
2022-10-15T16:25:30.030Z,31.23
2022-10-15T16:28:03.121Z,31.90
2022-10-15T16:30:35.708Z,25.92
2022-10-15T16:35:53.269Z,23.38
2022-10-15T16:38:26.129Z,25.08
2022-10-15T16:40:58.848Z,29.65
2022-10-15T16:43:31.734Z,32.45
2022-10-15T16:46:05.520Z,26.90
2022-10-15T16:48:40.560Z,28.58
2022-10-15T16:51:15.786Z,30.23
2022-10-15T16:53:48.909Z,27.70
2022-10-15T16:56:25.328Z,30.75
2022-10-15T16:58:58.616Z,27.27
2022-10-15T17:01:31.819Z,26.08
2022-10-15T17:04:04.989Z,31.60
2022-10-15T17:06:37.609Z,30.60
2022-10-15T17:09:11.810Z,35.28
2022-10-15T17:11:47.128Z,29.13
2022-10-15T17:14:23.306Z,33.13
2022-10-15T17:16:55.966Z,33.03
2022-10-15T17:19:31.862Z,33.33
2022-10-15T17:22:06.956Z,32.25
2022-10-15T17:24:39.689Z,38.17
2022-10-15T17:27:12.855Z,35.03
2022-10-15T17:29:45.801Z,33.30
2022-10-15T17:32:18.571Z,35.63
2022-10-15T17:34:51.607Z,28.70
2022-10-15T17:37:24.652Z,31.40
2022-10-15T17:39:58.559Z,32.65
2022-10-15T17:42:31.315Z,26.17
2022-10-15T17:45:04.346Z,29.13
2022-10-15T17:47:38.820Z,33.90
2022-10-15T17:50:14.994Z,34.80
2022-10-15T17:52:47.706Z,32.38
2022-10-15T17:55:20.312Z,34.15
2022-10-15T17:57:53.088Z,31.50
2022-10-15T18:00:26.970Z,30.88
2022-10-15T18:02:59.533Z,37.97
2022-10-15T18:05:32.553Z,27.98
2022-10-15T18:08:05.480Z,31.67
2022-10-15T18:10:38.565Z,30.02
2022-10-15T18:13:11.718Z,31.95
2022-10-15T18:15:51.423Z,29.73
2022-10-15T18:20:57.565Z,35.58
2022-10-15T18:23:33.074Z,35.65
2022-10-15T18:28:42.899Z,34.47
2022-10-15T18:31:15.937Z,34.47
2022-10-15T18:33:52.255Z,31.52
2022-10-15T18:36:28.877Z,28.50
2022-10-15T18:39:01.576Z,29.25
2022-10-15T18:41:37.792Z,37.83
2022-10-15T18:44:16.934Z,30.48
2022-10-15T18:46:50.326Z,29.27
2022-10-15T18:49:23.253Z,29.48
2022-10-15T18:51:56.404Z,36.17
2022-10-15T18:54:36.015Z,32.55
2022-10-15T18:57:08.878Z,30.35
2022-10-15T18:59:42.239Z,33.03
2022-10-15T19:02:15.527Z,35.17
2022-10-15T19:04:50.174Z,34.42
2022-10-15T19:07:24.085Z,33.55
2022-10-15T19:09:58.723Z,31.17
2022-10-15T19:15:04.882Z,33.05
2022-10-15T19:17:37.509Z,32.33
2022-10-15T19:20:10.784Z,34.53
2022-10-15T19:22:43.315Z,29.90
2022-10-15T19:25:18.225Z,35.35
2022-10-15T19:27:52.606Z,30.23
2022-10-15T19:30:26.314Z,31.77
2022-10-15T19:32:59.505Z,34.13
2022-10-15T19:35:38.252Z,32.30
2022-10-15T19:38:11.618Z,34.47
2022-10-15T19:40:47.264Z,40.75
2022-10-15T19:43:24.504Z,34.97
2022-10-15T19:46:02.572Z,35.25
2022-10-15T19:48:37.044Z,33.40
2022-10-15T19:51:09.920Z,36.10
2022-10-15T19:53:42.660Z,32.63
2022-10-15T19:56:16.307Z,35.05
2022-10-15T19:58:54.583Z,33.33
2022-10-15T20:01:28.965Z,32.58
2022-10-15T20:04:06.281Z,35.70
2022-10-15T20:06:39.988Z,29.48
2022-10-15T20:09:12.758Z,41.17
2022-10-15T20:11:45.446Z,36.90
2022-10-15T20:14:18.154Z,34.15
2022-10-15T20:16:50.732Z,38.78
2022-10-15T20:19:23.322Z,35.58
2022-10-15T20:21:55.915Z,35.60
2022-10-15T20:24:28.797Z,41.45
2022-10-15T20:27:01.455Z,53.72
2022-10-15T20:29:34.195Z,40.38
2022-10-15T20:32:23.097Z,36.42
2022-10-15T20:35:00.970Z,34.88
2022-10-15T20:37:33.553Z,30.63
2022-10-15T20:40:07.421Z,36.13
2022-10-15T20:42:40.109Z,31.65
2022-10-15T20:45:15.022Z,33.08
2022-10-15T20:47:51.558Z,33.50
2022-10-15T20:50:30.307Z,33.28
2022-10-15T20:53:03.550Z,25.13
2022-10-15T20:55:36.261Z,30.27
2022-10-15T20:58:09.417Z,29.70
2022-10-15T21:00:42.321Z,29.23
2022-10-15T21:03:15.105Z,29.83
2022-10-15T21:05:47.830Z,28.75
2022-10-15T21:08:20.584Z,29.63
2022-10-15T21:10:54.005Z,26.35
2022-10-15T21:13:26.452Z,28.30
2022-10-15T21:16:01.911Z,29.40
2022-10-15T21:18:36.070Z,29.73
2022-10-15T21:21:11.878Z,33.92
2022-10-15T21:23:44.463Z,26.02
2022-10-15T21:26:18.235Z,26.23
2022-10-15T21:28:56.661Z,29.10
2022-10-15T21:31:29.603Z,27.08
2022-10-15T21:34:02.309Z,25.05
2022-10-15T21:36:35.010Z,23.55
2022-10-15T21:39:09.267Z,29.05
2022-10-15T21:41:41.932Z,29.63
2022-10-15T21:44:14.590Z,26.40
2022-10-15T21:46:47.085Z,27.20
2022-10-15T21:49:19.758Z,27.88
2022-10-15T21:51:52.412Z,25.13
2022-10-15T21:54:25.033Z,28.38
2022-10-15T21:56:57.624Z,26.85
2022-10-15T21:59:30.091Z,23.83
2022-10-15T22:02:02.741Z,25.25
2022-10-15T22:04:35.816Z,24.88
2022-10-15T22:07:09.467Z,22.77
2022-10-15T22:09:42.158Z,23.15
2022-10-15T22:12:16.647Z,23.15
2022-10-15T22:14:51.840Z,26.10
2022-10-15T22:17:24.631Z,19.40
2022-10-15T22:19:57.430Z,19.77
2022-10-15T22:22:29.925Z,23.25
2022-10-15T22:25:02.541Z,20.38
2022-10-15T22:27:35.278Z,22.30
2022-10-15T22:30:08.422Z,23.00
2022-10-15T22:32:40.969Z,21.52
2022-10-15T22:35:13.499Z,18.52
2022-10-15T22:37:46.325Z,21.35
2022-10-15T22:40:18.913Z,20.08
2022-10-15T22:42:51.455Z,21.55
2022-10-15T22:45:24.091Z,23.33
2022-10-15T22:47:56.699Z,19.50
2022-10-15T22:50:29.441Z,22.17
2022-10-15T22:53:02.257Z,18.42
2022-10-15T22:55:35.002Z,19.85
2022-10-15T22:58:07.597Z,19.45
2022-10-15T23:00:40.279Z,20.48
2022-10-15T23:03:12.838Z,18.27
2022-10-15T23:05:52.837Z,18.50
2022-10-15T23:08:25.414Z,18.98
2022-10-15T23:11:09.336Z,17.95
2022-10-15T23:13:44.247Z,18.02
2022-10-15T23:16:20.252Z,17.10
2022-10-15T23:18:58.819Z,18.77
2022-10-15T23:21:40.893Z,17.90
2022-10-15T23:24:14.144Z,15.00
2022-10-15T23:26:46.742Z,16.77
2022-10-15T23:29:22.274Z,15.93
2022-10-15T23:31:56.240Z,16.35
2022-10-15T23:34:29.036Z,18.17
2022-10-15T23:37:01.631Z,17.90
2022-10-15T23:39:34.371Z,20.98
2022-10-15T23:42:06.962Z,16.73
2022-10-15T23:44:39.937Z,18.02
2022-10-15T23:47:12.431Z,22.50
2022-10-15T23:49:44.949Z,15.90
2022-10-15T23:52:17.420Z,18.95
2022-10-15T23:54:51.013Z,16.50
2022-10-15T23:57:23.930Z,19.08
2022-10-15T23:59:56.928Z,19.42
